createdAt,value
2022-09-06T00:02:20.709Z,3.78
2022-09-06T00:04:48.927Z,3.28
2022-09-06T00:07:15.766Z,3.00
2022-09-06T00:09:42.511Z,3.30
2022-09-06T00:12:09.319Z,3.72
2022-09-06T00:14:36.047Z,3.53
2022-09-06T00:17:02.902Z,2.92
2022-09-06T00:19:29.649Z,3.20
2022-09-06T00:21:56.578Z,2.70
2022-09-06T00:24:23.412Z,3.20
2022-09-06T00:26:50.188Z,3.08
2022-09-06T00:29:16.985Z,2.80
2022-09-06T00:31:43.792Z,3.20
2022-09-06T00:34:10.579Z,3.08
2022-09-06T00:36:37.385Z,2.95
2022-09-06T00:39:04.361Z,3.38
2022-09-06T00:41:31.586Z,3.05
2022-09-06T00:43:58.972Z,3.45
2022-09-06T00:46:29.344Z,3.55
2022-09-06T00:49:05.203Z,2.85
2022-09-06T00:51:34.477Z,3.50
2022-09-06T00:54:07.063Z,3.42
2022-09-06T00:56:37.966Z,3.80
2022-09-06T00:59:05.228Z,3.08
2022-09-06T01:01:32.087Z,3.17
2022-09-06T01:03:59.734Z,3.25
2022-09-06T01:06:49.319Z,3.47
2022-09-06T01:09:45.003Z,3.00
2022-09-06T01:12:27.277Z,3.40
2022-09-06T01:15:35.449Z,3.40
2022-09-06T01:18:17.114Z,3.53
2022-09-06T01:21:08.203Z,3.20
2022-09-06T01:24:22.774Z,3.05
2022-09-06T01:27:08.118Z,3.70
2022-09-06T01:30:02.204Z,3.78
2022-09-06T01:32:29.028Z,3.55
2022-09-06T01:35:10.072Z,3.58
2022-09-06T01:37:37.700Z,4.07
2022-09-06T01:40:04.877Z,3.78
2022-09-06T01:42:34.352Z,4.13
2022-09-06T01:45:09.329Z,4.25
2022-09-06T01:48:20.733Z,4.30
2022-09-06T01:50:58.332Z,3.72
2022-09-06T01:53:55.847Z,4.03
2022-09-06T01:56:50.005Z,4.22
2022-09-06T01:59:28.573Z,3.85
2022-09-06T02:02:04.196Z,3.92
2022-09-06T02:04:53.667Z,5.00
2022-09-06T02:07:22.385Z,5.20
2022-09-06T02:09:56.722Z,4.53
2022-09-06T02:14:57.024Z,4.78
2022-09-06T02:17:28.222Z,4.22
2022-09-06T02:19:58.216Z,4.22
2022-09-06T02:22:29.394Z,3.55
2022-09-06T02:24:59.468Z,3.80
2022-09-06T02:27:27.136Z,3.78
2022-09-06T02:29:54.003Z,3.90
2022-09-06T02:32:26.515Z,3.90
2022-09-06T02:34:56.760Z,3.92
2022-09-06T02:37:26.279Z,3.92
2022-09-06T02:39:55.407Z,4.22
2022-09-06T02:42:24.161Z,3.88
2022-09-06T02:44:50.882Z,3.85
2022-09-06T02:47:18.018Z,4.10
2022-09-06T02:49:44.829Z,4.10
2022-09-06T02:52:12.180Z,4.57
2022-09-06T02:54:39.109Z,3.55
2022-09-06T02:57:06.041Z,4.38
2022-09-06T02:59:32.926Z,4.20
2022-09-06T03:02:00.246Z,4.43
2022-09-06T03:04:27.142Z,4.18
2022-09-06T03:06:53.936Z,4.25
2022-09-06T03:09:20.691Z,4.40
2022-09-06T03:11:47.537Z,4.22
2022-09-06T03:14:17.022Z,4.80
2022-09-06T03:16:43.851Z,4.00
2022-09-06T03:19:11.060Z,5.13
2022-09-06T03:21:37.837Z,4.85
2022-09-06T03:24:04.813Z,4.78
2022-09-06T03:26:31.685Z,5.10
2022-09-06T03:28:58.448Z,5.88
2022-09-06T03:31:25.359Z,6.00
2022-09-06T03:33:52.142Z,6.18
2022-09-06T03:36:18.992Z,6.35
2022-09-06T03:38:45.757Z,5.93
2022-09-06T03:41:12.679Z,6.18
2022-09-06T03:43:39.519Z,6.50
2022-09-06T03:46:06.523Z,6.18
2022-09-06T03:48:33.440Z,6.03
2022-09-06T03:51:00.255Z,6.10
2022-09-06T03:53:28.646Z,6.05
2022-09-06T03:55:57.778Z,5.18
2022-09-06T03:58:28.654Z,4.95
2022-09-06T04:01:07.650Z,5.63
2022-09-06T04:03:35.328Z,5.10
2022-09-06T04:06:02.954Z,5.05
2022-09-06T04:08:29.974Z,5.80
2022-09-06T04:10:57.924Z,5.80
2022-09-06T04:13:25.521Z,5.82
2022-09-06T04:15:52.713Z,6.13
2022-09-06T04:18:20.480Z,5.88
2022-09-06T04:20:56.031Z,6.97
2022-09-06T04:23:24.195Z,6.47
2022-09-06T04:25:53.469Z,5.95
2022-09-06T04:28:21.511Z,5.75
2022-09-06T04:30:54.160Z,5.55
2022-09-06T04:33:21.926Z,6.78
2022-09-06T04:35:50.243Z,4.72
2022-09-06T04:38:17.127Z,4.95
2022-09-06T04:40:43.950Z,4.72
2022-09-06T04:43:10.774Z,4.43
2022-09-06T04:45:38.085Z,4.70
2022-09-06T04:48:05.656Z,5.40
2022-09-06T04:50:32.665Z,4.90
2022-09-06T04:53:05.789Z,5.10
2022-09-06T04:55:34.216Z,5.80
2022-09-06T04:58:01.642Z,5.82
2022-09-06T05:00:29.555Z,7.10
2022-09-06T05:02:56.359Z,6.50
2022-09-06T05:05:23.274Z,7.07
2022-09-06T05:07:54.002Z,6.60
2022-09-06T05:10:22.705Z,7.10
2022-09-06T05:12:54.488Z,6.85
2022-09-06T05:15:22.480Z,6.82
2022-09-06T05:17:49.770Z,6.55
2022-09-06T05:20:16.678Z,6.07
2022-09-06T05:22:44.062Z,6.13
2022-09-06T05:25:10.921Z,5.65
2022-09-06T05:27:37.706Z,5.93
2022-09-06T05:30:04.734Z,5.28
2022-09-06T05:32:31.628Z,5.20
2022-09-06T05:34:58.469Z,4.90
2022-09-06T05:37:25.386Z,6.00
2022-09-06T05:39:52.349Z,6.00
2022-09-06T05:42:19.556Z,5.70
2022-09-06T05:44:46.765Z,6.97
2022-09-06T05:47:13.716Z,7.20
2022-09-06T05:49:40.538Z,8.10
2022-09-06T05:52:07.434Z,7.95
2022-09-06T05:54:34.197Z,6.68
2022-09-06T05:57:00.954Z,7.65
2022-09-06T05:59:27.749Z,7.97
2022-09-06T06:01:55.274Z,8.25
2022-09-06T06:04:22.809Z,8.27
2022-09-06T06:06:49.903Z,7.35
2022-09-06T06:09:16.913Z,7.75
2022-09-06T06:11:43.931Z,7.65
2022-09-06T06:14:10.804Z,8.63
2022-09-06T06:16:38.309Z,7.35
2022-09-06T06:19:05.234Z,7.20
2022-09-06T06:21:33.660Z,8.07
2022-09-06T06:24:02.653Z,7.88
2022-09-06T06:26:32.257Z,6.45
2022-09-06T06:29:02.116Z,8.50
2022-09-06T06:31:30.349Z,7.13
2022-09-06T06:33:58.455Z,7.35
2022-09-06T06:36:26.945Z,6.97
2022-09-06T06:38:55.394Z,6.40
2022-09-06T06:41:28.001Z,6.82
2022-09-06T06:43:56.755Z,6.07
2022-09-06T06:46:26.597Z,5.20
2022-09-06T06:48:56.890Z,5.88
2022-09-06T06:51:25.913Z,5.55
2022-09-06T06:53:52.787Z,9.48
2022-09-06T06:56:23.790Z,4.97
2022-09-06T06:58:52.796Z,4.97
2022-09-06T07:01:21.256Z,5.80
2022-09-06T07:03:49.330Z,5.18
2022-09-06T07:06:17.205Z,5.18
2022-09-06T07:08:44.308Z,4.97
2022-09-06T07:11:13.810Z,4.05
2022-09-06T07:13:40.687Z,4.57
2022-09-06T07:16:22.448Z,3.55
2022-09-06T07:18:53.996Z,3.70
2022-09-06T07:21:42.524Z,4.15
2022-09-06T07:24:10.862Z,2.97
2022-09-06T07:26:39.815Z,3.35
2022-09-06T07:29:07.836Z,2.72
2022-09-06T07:34:25.845Z,2.80
2022-09-06T07:36:56.234Z,3.15
2022-09-06T07:39:23.404Z,3.05
2022-09-06T07:41:50.325Z,3.03
2022-09-06T07:44:17.277Z,3.47
2022-09-06T07:46:44.223Z,3.97
2022-09-06T07:49:11.180Z,3.75
2022-09-06T07:51:38.174Z,4.45
2022-09-06T07:56:52.305Z,4.75
2022-09-06T07:59:19.171Z,5.43
2022-09-06T08:01:47.583Z,3.88
2022-09-06T08:04:15.990Z,4.28
2022-09-06T08:09:36.366Z,4.10
2022-09-06T08:12:07.050Z,3.88
2022-09-06T08:14:34.850Z,5.38
2022-09-06T08:17:04.640Z,3.95
2022-09-06T08:19:31.672Z,4.75
2022-09-06T08:21:58.651Z,3.40
2022-09-06T08:24:25.538Z,3.65
2022-09-06T08:26:52.628Z,3.03
2022-09-06T08:29:22.271Z,3.42
2022-09-06T08:31:49.451Z,4.03
2022-09-06T08:34:16.585Z,3.53
2022-09-06T08:36:44.270Z,3.22
2022-09-06T08:39:11.852Z,3.47
2022-09-06T08:42:06.293Z,3.17
2022-09-06T08:44:58.657Z,3.63
2022-09-06T08:47:26.330Z,3.22
2022-09-06T08:50:07.481Z,3.35
2022-09-06T08:53:17.340Z,2.78
2022-09-06T08:56:13.663Z,3.05
2022-09-06T08:59:04.758Z,2.70
2022-09-06T09:01:46.253Z,2.50
2022-09-06T09:04:18.959Z,2.75
2022-09-06T09:06:50.846Z,3.20
2022-09-06T09:09:17.804Z,2.75
2022-09-06T09:11:49.905Z,2.95
2022-09-06T09:14:36.141Z,2.83
2022-09-06T09:17:16.596Z,2.72
2022-09-06T09:19:43.414Z,2.80
2022-09-06T09:22:10.410Z,3.05
2022-09-06T09:24:37.647Z,2.50
2022-09-06T09:27:11.211Z,2.40
2022-09-06T09:32:42.841Z,2.50
2022-09-06T09:35:23.616Z,2.13
2022-09-06T09:38:26.628Z,1.90
2022-09-06T09:41:00.301Z,1.20
2022-09-06T09:43:31.520Z,1.85
2022-09-06T09:46:22.515Z,1.88
2022-09-06T09:49:14.203Z,1.38
2022-09-06T09:51:42.154Z,2.00
2022-09-06T09:54:11.597Z,1.40
2022-09-06T09:56:43.802Z,1.10
2022-09-06T09:59:19.622Z,1.08
2022-09-06T10:01:46.611Z,1.20
2022-09-06T10:07:12.046Z,1.67
2022-09-06T10:09:46.307Z,2.00
2022-09-06T10:12:18.944Z,1.70
2022-09-06T10:14:48.731Z,1.27
2022-09-06T10:17:32.485Z,2.00
2022-09-06T10:20:08.488Z,1.90
2022-09-06T10:22:58.838Z,1.73
2022-09-06T10:26:05.992Z,1.73
2022-09-06T10:28:41.909Z,1.70
2022-09-06T10:31:20.517Z,1.88
2022-09-06T10:33:56.400Z,1.88
2022-09-06T10:36:32.597Z,1.92
2022-09-06T10:39:22.451Z,1.80
2022-09-06T10:41:58.408Z,2.35
2022-09-06T10:44:54.466Z,1.58
2022-09-06T10:47:29.499Z,2.20
2022-09-06T10:50:00.628Z,2.53
2022-09-06T10:52:34.498Z,2.10
2022-09-06T10:55:05.215Z,1.90
2022-09-06T11:00:47.438Z,2.00
2022-09-06T11:06:25.439Z,2.03
2022-09-06T11:09:27.899Z,2.65
2022-09-06T11:12:18.676Z,1.90
2022-09-06T11:14:46.493Z,1.88
2022-09-06T11:17:33.453Z,2.15
2022-09-06T11:20:14.469Z,1.73
2022-09-06T11:22:44.315Z,1.70
2022-09-06T11:25:35.444Z,1.83
2022-09-06T11:28:07.410Z,1.60
2022-09-06T11:30:34.636Z,1.65
2022-09-06T11:33:25.077Z,1.20
2022-09-06T11:35:53.516Z,1.45
2022-09-06T11:38:20.217Z,1.27
2022-09-06T11:40:51.758Z,1.73
2022-09-06T11:43:41.035Z,1.50
2022-09-06T11:46:08.129Z,1.38
2022-09-06T11:48:49.454Z,1.50
2022-09-06T11:51:41.685Z,1.58
2022-09-06T11:54:11.501Z,1.30
2022-09-06T11:56:52.648Z,1.70
2022-09-06T11:59:19.433Z,1.42
2022-09-06T12:02:01.420Z,1.38
2022-09-06T12:05:00.510Z,1.75
2022-09-06T12:07:32.120Z,1.50
2022-09-06T12:10:02.249Z,1.30
2022-09-06T12:12:46.338Z,1.50
2022-09-06T12:17:59.544Z,1.63
2022-09-06T12:20:47.947Z,1.55
2022-09-06T12:23:36.493Z,1.48
2022-09-06T12:26:07.896Z,1.33
2022-09-06T12:28:47.144Z,1.50
2022-09-06T12:31:41.194Z,1.58
2022-09-06T12:36:46.891Z,0.98
2022-09-06T12:39:13.712Z,1.10
2022-09-06T12:41:45.146Z,1.10
2022-09-06T12:44:14.684Z,1.00
2022-09-06T12:46:50.999Z,1.35
2022-09-06T12:49:23.593Z,1.20
2022-09-06T12:51:50.490Z,1.20
2022-09-06T12:54:24.390Z,0.77
2022-09-06T12:56:52.837Z,1.52
2022-09-06T12:59:25.588Z,1.27
2022-09-06T13:02:07.279Z,1.13
2022-09-06T13:04:49.370Z,1.45
2022-09-06T13:07:19.319Z,0.80
2022-09-06T13:09:52.189Z,1.20
2022-09-06T13:12:33.938Z,1.10
2022-09-06T13:15:08.939Z,1.05
2022-09-06T13:17:38.001Z,1.33
2022-09-06T13:20:14.323Z,0.80
2022-09-06T13:22:43.274Z,0.95
2022-09-06T13:25:20.979Z,0.95
2022-09-06T13:27:50.961Z,1.15
2022-09-06T13:30:34.813Z,1.27
2022-09-06T13:33:03.844Z,0.88
2022-09-06T13:35:34.503Z,1.13
2022-09-06T13:38:20.859Z,1.25
2022-09-06T13:41:15.754Z,1.00
2022-09-06T13:43:48.546Z,0.90
2022-09-06T13:46:15.727Z,1.00
2022-09-06T13:48:44.649Z,1.08
2022-09-06T13:51:11.955Z,1.10
2022-09-06T13:53:38.742Z,1.55
2022-09-06T13:56:08.679Z,1.20
2022-09-06T13:58:36.554Z,1.20
2022-09-06T14:01:08.995Z,1.33
2022-09-06T14:03:37.654Z,1.30
2022-09-06T14:06:04.771Z,1.25
2022-09-06T14:08:49.692Z,1.42
2022-09-06T14:11:19.888Z,1.40
2022-09-06T14:13:46.819Z,1.15
2022-09-06T14:16:13.980Z,1.30
2022-09-06T14:18:41.336Z,1.52
2022-09-06T14:21:08.448Z,1.48
2022-09-06T14:23:35.257Z,1.15
2022-09-06T14:26:04.106Z,1.08
2022-09-06T14:28:34.295Z,1.10
2022-09-06T14:31:19.363Z,1.20
2022-09-06T14:33:46.234Z,1.63
2022-09-06T14:36:16.448Z,1.15
2022-09-06T14:38:45.151Z,1.70
2022-09-06T14:41:16.141Z,1.42
2022-09-06T14:43:44.175Z,2.17
2022-09-06T14:46:13.853Z,1.42
2022-09-06T14:48:42.601Z,1.42
2022-09-06T14:51:09.695Z,1.70
2022-09-06T14:53:44.363Z,1.58
2022-09-06T14:56:12.739Z,1.33
2022-09-06T14:58:40.681Z,1.85
2022-09-06T15:01:13.623Z,2.08
2022-09-06T15:03:51.436Z,1.70
2022-09-06T15:06:21.245Z,2.03
2022-09-06T15:08:49.098Z,1.48
2022-09-06T15:11:30.500Z,1.33
2022-09-06T15:13:58.456Z,1.65
2022-09-06T15:16:25.366Z,1.60
2022-09-06T15:18:53.647Z,1.75
2022-09-06T15:21:21.263Z,1.88
2022-09-06T15:23:48.094Z,2.15
2022-09-06T15:26:16.367Z,2.00
2022-09-06T15:28:44.572Z,2.33
2022-09-06T15:31:13.079Z,2.45
2022-09-06T15:33:40.920Z,1.95
2022-09-06T15:36:10.133Z,3.00
2022-09-06T15:38:41.281Z,2.00
2022-09-06T15:41:14.427Z,2.13
2022-09-06T15:43:45.350Z,1.77
2022-09-06T15:46:12.469Z,2.30
2022-09-06T15:48:42.452Z,2.15
2022-09-06T15:51:10.495Z,1.70
2022-09-06T15:53:38.727Z,2.25
2022-09-06T15:56:07.280Z,2.15
2022-09-06T15:58:34.448Z,2.30
2022-09-06T16:01:13.204Z,2.13
2022-09-06T16:03:45.469Z,1.90
2022-09-06T16:06:30.373Z,2.15
2022-09-06T16:08:59.956Z,2.38
2022-09-06T16:11:28.437Z,2.47
2022-09-06T16:13:55.738Z,2.55
2022-09-06T16:16:23.143Z,2.17
2022-09-06T16:18:52.224Z,2.10
2022-09-06T16:21:24.324Z,2.60
2022-09-06T16:23:59.893Z,2.08
2022-09-06T16:26:29.967Z,1.88
2022-09-06T16:28:56.878Z,1.90
2022-09-06T16:31:24.321Z,2.17
2022-09-06T16:33:51.572Z,1.98
2022-09-06T16:36:19.623Z,2.08
2022-09-06T16:38:47.517Z,2.25
2022-09-06T16:41:42.486Z,2.38
2022-09-06T16:44:16.069Z,2.15
2022-09-06T16:46:48.230Z,2.28
2022-09-06T16:49:19.522Z,3.00
2022-09-06T16:51:48.550Z,2.70
2022-09-06T16:54:16.161Z,4.07
2022-09-06T16:56:43.348Z,3.10
2022-09-06T16:59:11.687Z,3.03
2022-09-06T17:01:41.931Z,3.40
2022-09-06T17:04:09.899Z,3.78
2022-09-06T17:06:44.112Z,3.42
2022-09-06T17:09:12.979Z,2.70
2022-09-06T17:11:40.346Z,2.63
2022-09-06T17:14:07.436Z,3.03
2022-09-06T17:16:52.910Z,2.80
2022-09-06T17:19:20.057Z,3.78
2022-09-06T17:21:47.826Z,3.70
2022-09-06T17:24:14.752Z,3.63
2022-09-06T17:26:41.635Z,3.25
2022-09-06T17:29:10.571Z,3.80
2022-09-06T17:31:38.075Z,2.92
2022-09-06T17:34:06.992Z,2.85
2022-09-06T17:36:35.143Z,3.08
2022-09-06T17:39:10.355Z,3.13
2022-09-06T17:41:37.838Z,3.35
2022-09-06T17:44:06.450Z,2.63
2022-09-06T17:46:33.724Z,2.72
2022-09-06T17:49:00.565Z,2.92
2022-09-06T17:51:27.930Z,2.67
2022-09-06T17:53:54.816Z,2.92
2022-09-06T17:56:21.958Z,3.08
2022-09-06T17:58:57.363Z,3.15
2022-09-06T18:01:26.353Z,4.07
2022-09-06T18:03:53.262Z,7.88
2022-09-06T18:06:22.973Z,3.97
2022-09-06T18:08:52.442Z,2.72
2022-09-06T18:11:30.035Z,3.88
2022-09-06T18:14:02.648Z,3.53
2022-09-06T18:16:30.784Z,4.68
2022-09-06T18:19:00.359Z,3.72
2022-09-06T18:21:29.208Z,3.40
2022-09-06T18:23:56.884Z,3.35
2022-09-06T18:26:24.940Z,3.15
2022-09-06T18:28:55.544Z,3.15
2022-09-06T18:31:25.538Z,2.83
2022-09-06T18:33:54.220Z,2.95
2022-09-06T18:36:21.425Z,3.38
2022-09-06T18:38:48.311Z,3.22
2022-09-06T18:41:36.271Z,3.60
2022-09-06T18:44:05.501Z,3.05
2022-09-06T18:46:35.059Z,3.25
2022-09-06T18:49:02.590Z,3.03
2022-09-06T18:51:29.746Z,2.97
2022-09-06T18:53:58.734Z,3.13
2022-09-06T18:56:27.408Z,3.22
2022-09-06T18:58:58.474Z,3.70
2022-09-06T19:01:28.620Z,2.92
2022-09-06T19:04:00.234Z,3.63
2022-09-06T19:06:29.233Z,3.83
2022-09-06T19:09:00.858Z,3.72
2022-09-06T19:11:28.225Z,3.63
2022-09-06T19:13:56.459Z,3.47
2022-09-06T19:16:25.205Z,3.45
2022-09-06T19:18:58.011Z,3.60
2022-09-06T19:21:25.745Z,3.50
2022-09-06T19:24:02.095Z,3.35
2022-09-06T19:26:32.193Z,3.90
2022-09-06T19:29:02.278Z,3.75
2022-09-06T19:31:32.459Z,3.58
2022-09-06T19:33:59.788Z,4.47
2022-09-06T19:36:28.543Z,4.22
2022-09-06T19:39:04.944Z,3.97
2022-09-06T19:41:43.180Z,3.97
2022-09-06T19:44:11.316Z,3.80
2022-09-06T19:46:40.123Z,3.78
2022-09-06T19:49:09.773Z,4.13
2022-09-06T19:51:37.312Z,4.10
2022-09-06T19:54:04.938Z,3.72
2022-09-06T19:56:35.450Z,3.78
2022-09-06T19:59:06.388Z,3.40
2022-09-06T20:01:35.604Z,3.83
2022-09-06T20:04:04.499Z,3.50
2022-09-06T20:06:31.603Z,3.72
2022-09-06T20:08:59.640Z,3.88
2022-09-06T20:11:30.510Z,3.80
2022-09-06T20:13:58.023Z,3.42
2022-09-06T20:16:25.483Z,4.05
2022-09-06T20:18:54.855Z,3.97
2022-09-06T20:21:22.056Z,4.30
2022-09-06T20:23:53.843Z,3.75
2022-09-06T20:26:23.781Z,3.67
2022-09-06T20:28:58.829Z,3.80
2022-09-06T20:31:26.772Z,4.07
2022-09-06T20:33:53.710Z,3.92
2022-09-06T20:36:20.863Z,3.58
2022-09-06T20:38:48.640Z,3.35
2022-09-06T20:41:21.445Z,3.85
2022-09-06T20:43:57.098Z,3.83
2022-09-06T20:46:26.443Z,3.42
2022-09-06T20:48:55.432Z,3.95
2022-09-06T20:51:23.928Z,3.17
2022-09-06T20:53:57.272Z,4.18
2022-09-06T20:56:30.210Z,3.63
2022-09-06T20:59:02.563Z,4.78
2022-09-06T21:01:34.735Z,4.32
2022-09-06T21:04:03.372Z,3.67
2022-09-06T21:06:33.859Z,3.92
2022-09-06T21:09:00.984Z,4.00
2022-09-06T21:11:28.268Z,3.88
2022-09-06T21:13:57.384Z,4.22
2022-09-06T21:16:27.137Z,4.20
2022-09-06T21:18:56.329Z,4.07
2022-09-06T21:21:23.818Z,4.03
2022-09-06T21:23:50.922Z,4.55
2022-09-06T21:26:18.040Z,4.15
2022-09-06T21:28:46.697Z,3.58
2022-09-06T21:31:19.615Z,3.90
2022-09-06T21:33:48.330Z,3.90
2022-09-06T21:36:29.317Z,3.35
2022-09-06T21:38:59.297Z,3.60
2022-09-06T21:41:27.146Z,3.42
2022-09-06T21:43:57.239Z,3.53
2022-09-06T21:46:31.772Z,4.10
2022-09-06T21:49:03.910Z,3.63
2022-09-06T21:51:32.413Z,3.75
2022-09-06T21:54:03.463Z,3.85
2022-09-06T21:56:30.697Z,3.72
2022-09-06T21:58:58.969Z,3.72
2022-09-06T22:01:28.348Z,4.45
2022-09-06T22:03:55.617Z,4.07
2022-09-06T22:06:24.933Z,4.78
2022-09-06T22:08:52.699Z,4.20
2022-09-06T22:11:23.347Z,4.80
2022-09-06T22:13:51.024Z,4.43
2022-09-06T22:16:21.746Z,3.28
2022-09-06T22:18:49.932Z,3.72
2022-09-06T22:21:20.258Z,4.03
2022-09-06T22:23:51.420Z,3.63
2022-09-06T22:26:19.075Z,3.65
2022-09-06T22:28:46.216Z,3.95
2022-09-06T22:31:13.293Z,3.83
2022-09-06T22:33:40.414Z,4.60
2022-09-06T22:36:07.614Z,4.00
2022-09-06T22:38:34.937Z,3.60
2022-09-06T22:41:02.339Z,3.65
2022-09-06T22:43:29.278Z,3.72
2022-09-06T22:46:06.222Z,3.22
2022-09-06T22:48:34.029Z,3.58
2022-09-06T22:51:02.033Z,4.00
2022-09-06T22:53:30.051Z,3.70
2022-09-06T22:55:57.259Z,2.90
2022-09-06T22:58:27.111Z,2.80
2022-09-06T23:00:54.836Z,3.08
2022-09-06T23:03:21.745Z,3.03
2022-09-06T23:05:48.935Z,2.95
2022-09-06T23:08:16.073Z,3.15
2022-09-06T23:10:44.426Z,2.60
2022-09-06T23:13:11.840Z,3.17
2022-09-06T23:15:46.194Z,2.70
2022-09-06T23:18:14.601Z,2.78
2022-09-06T23:20:41.912Z,2.70
2022-09-06T23:23:08.780Z,3.05
2022-09-06T23:25:39.332Z,3.15
2022-09-06T23:28:06.467Z,3.10
2022-09-06T23:30:36.626Z,3.00
2022-09-06T23:33:03.735Z,2.72
2022-09-06T23:35:30.606Z,3.08
2022-09-06T23:37:57.722Z,3.22
2022-09-06T23:40:24.566Z,3.20
2022-09-06T23:42:51.388Z,3.60
2022-09-06T23:45:18.191Z,3.78
2022-09-06T23:47:44.972Z,2.80
2022-09-06T23:50:11.855Z,3.53
2022-09-06T23:52:38.703Z,3.35
2022-09-06T23:55:06.285Z,3.22
2022-09-06T23:57:33.096Z,2.78
2022-09-06T23:59:59.908Z,3.13
